Terminal Aerodrome Forecast
Issued by NWS Sterling, VA

Current Version | Previous Version | Text Only | Print | Product List | Glossary Off
Versions: 1 2 3 4 5 6 7 8 9 10 11 12 13 14 15 16 17 18 19 20 21 22 23

000
FTUS41 KLWX 241739
TAFDCA
TAF
KDCA 241739Z 2418/2518 18005KT P6SM SCT050
     FM250000 16005KT P6SM SCT200
     FM250300 16005KT P6SM BKN050
     FM251100 23004KT P6SM BKN100
     FM251500 24005KT P6SM SCT060=

USA.gov is the U.S. government's official web portal to all federal, state and local government web resources and services.